IBC1760 LEBL-LEIB
Flight info
| Callsign | IBC1760 |
|---|---|
| Flight time | 0h 41m |
| Altitude | FL190 |
| Route | LARPA N859 TOLSO |
| Aircraft | A320/M-S/N |
Departure
| Time | 2026-05-04 15:51 |
|---|---|
| Airport | Josep Tarradellas Barcelona-El Prat Airport (LEBL) |
Arrival
| Time | 2026-05-04 16:33 |
|---|---|
| Airport | Ibiza Airport (LEIB) |
| Time | Latitude | Longitude | Altitude | Speed | Heading |
|---|---|---|---|---|---|
| 2026-05-04 14:36 | 41.30709 | 2.08973 | 20 ft | 0 kts | 245° |
| 2026-05-04 15:10 | 41.30707 | 2.08968 | 19 ft | 0 kts | 244° |
| 2026-05-04 15:10 | 41.30722 | 2.09000 | 21 ft | 8 kts | 40° |
| 2026-05-04 15:11 | 41.30776 | 2.09043 | 20 ft | 10 kts | 22° |
| 2026-05-04 15:11 | 41.30826 | 2.09055 | 20 ft | 4 kts | 18° |
| 2026-05-04 15:11 | 41.30860 | 2.09077 | 21 ft | 6 kts | 25° |
| 2026-05-04 15:11 | 41.30897 | 2.09118 | 20 ft | 8 kts | 57° |
| 2026-05-04 15:12 | 41.30885 | 2.09179 | 20 ft | 7 kts | 155° |
| 2026-05-04 15:12 | 41.30839 | 2.09161 | 22 ft | 8 kts | 200° |
| 2026-05-04 15:12 | 41.30783 | 2.09136 | 20 ft | 9 kts | 199° |
| 2026-05-04 15:12 | 41.30716 | 2.09105 | 21 ft | 11 kts | 199° |
| 2026-05-04 15:13 | 41.30639 | 2.09068 | 19 ft | 13 kts | 200° |
| 2026-05-04 15:13 | 41.30553 | 2.09028 | 19 ft | 9 kts | 195° |
| 2026-05-04 15:13 | 41.30550 | 2.09026 | 19 ft | 0 kts | 194° |
| 2026-05-04 15:14 | 41.30549 | 2.09026 | 19 ft | 1 kts | 194° |
| 2026-05-04 15:14 | 41.30537 | 2.09022 | 19 ft | 3 kts | 194° |
| 2026-05-04 15:15 | 41.30507 | 2.09011 | 19 ft | 6 kts | 195° |
| 2026-05-04 15:15 | 41.30459 | 2.08992 | 20 ft | 9 kts | 198° |
| 2026-05-04 15:15 | 41.30399 | 2.08949 | 20 ft | 11 kts | 225° |
| 2026-05-04 15:16 | 41.30329 | 2.08746 | 18 ft | 0 kts | 245° |
| 2026-05-04 15:16 | 41.30325 | 2.08732 | 19 ft | 3 kts | 253° |
| 2026-05-04 15:17 | 41.30325 | 2.08727 | 21 ft | 0 kts | 258° |
| 2026-05-04 15:24 | 41.30317 | 2.08682 | 18 ft | 5 kts | 257° |
| 2026-05-04 15:25 | 41.30301 | 2.08635 | 18 ft | 7 kts | 246° |
| 2026-05-04 15:25 | 41.30278 | 2.08572 | 18 ft | 8 kts | 243° |
| 2026-05-04 15:25 | 41.30251 | 2.08495 | 20 ft | 10 kts | 246° |
| 2026-05-04 15:26 | 41.30186 | 2.08307 | 18 ft | 12 kts | 245° |
| 2026-05-04 15:26 | 41.30149 | 2.08199 | 19 ft | 13 kts | 246° |
| 2026-05-04 15:26 | 41.30067 | 2.07960 | 18 ft | 15 kts | 245° |
| 2026-05-04 15:27 | 41.30024 | 2.07833 | 19 ft | 15 kts | 245° |
| 2026-05-04 15:27 | 41.29936 | 2.07574 | 17 ft | 15 kts | 246° |
| 2026-05-04 15:28 | 41.29850 | 2.07324 | 17 ft | 14 kts | 245° |
| 2026-05-04 15:28 | 41.29810 | 2.07206 | 17 ft | 14 kts | 247° |
| 2026-05-04 15:28 | 41.29738 | 2.06981 | 17 ft | 13 kts | 246° |
| 2026-05-04 15:29 | 41.29702 | 2.06873 | 17 ft | 13 kts | 245° |
| 2026-05-04 15:30 | 41.29560 | 2.06458 | 18 ft | 12 kts | 246° |
| 2026-05-04 15:30 | 41.29451 | 2.06153 | 16 ft | 12 kts | 231° |
| 2026-05-04 15:31 | 41.29424 | 2.06134 | 16 ft | 0 kts | 193° |
| 2026-05-04 15:31 | 41.29420 | 2.06134 | 19 ft | 2 kts | 184° |
| 2026-05-04 15:32 | 41.29367 | 2.06130 | 16 ft | 2 kts | 182° |
| 2026-05-04 15:32 | 41.29290 | 2.06156 | 16 ft | 0 kts | 156° |
| 2026-05-04 15:34 | 41.29214 | 2.06202 | 16 ft | 8 kts | 155° |
| 2026-05-04 15:34 | 41.29131 | 2.06251 | 18 ft | 11 kts | 156° |
| 2026-05-04 15:34 | 41.29068 | 2.06300 | 16 ft | 3 kts | 140° |
| 2026-05-04 15:35 | 41.29035 | 2.06395 | 16 ft | 9 kts | 112° |
| 2026-05-04 15:35 | 41.29006 | 2.06493 | 16 ft | 13 kts | 110° |
| 2026-05-04 15:35 | 41.29030 | 2.06605 | 16 ft | 14 kts | 68° |
| 2026-05-04 15:36 | 41.29126 | 2.06904 | 17 ft | 21 kts | 65° |
| 2026-05-04 15:36 | 41.29188 | 2.07085 | 17 ft | 22 kts | 66° |
| 2026-05-04 15:36 | 41.29256 | 2.07269 | 18 ft | 22 kts | 64° |
| 2026-05-04 15:37 | 41.29316 | 2.07455 | 17 ft | 20 kts | 66° |
| 2026-05-04 15:37 | 41.29356 | 2.07590 | 17 ft | 15 kts | 66° |
| 2026-05-04 15:37 | 41.29398 | 2.07715 | 19 ft | 13 kts | 65° |
| 2026-05-04 15:37 | 41.29434 | 2.07820 | 17 ft | 13 kts | 70° |
| 2026-05-04 15:38 | 41.29446 | 2.07861 | 17 ft | 13 kts | 68° |
| 2026-05-04 15:39 | 41.29455 | 2.07889 | 17 ft | 14 kts | 68° |
| 2026-05-04 15:39 | 41.29501 | 2.08019 | 17 ft | 17 kts | 65° |
| 2026-05-04 15:39 | 41.29577 | 2.08318 | 17 ft | 17 kts | 72° |
| 2026-05-04 15:40 | 41.29628 | 2.08474 | 18 ft | 20 kts | 65° |
| 2026-05-04 15:40 | 41.29689 | 2.08647 | 18 ft | 22 kts | 65° |
| 2026-05-04 15:40 | 41.29735 | 2.08786 | 18 ft | 11 kts | 66° |
| 2026-05-04 15:40 | 41.29737 | 2.08792 | 20 ft | 0 kts | 65° |
| 2026-05-04 15:41 | 41.29736 | 2.08795 | 18 ft | 1 kts | 89° |
| 2026-05-04 15:41 | 41.29727 | 2.08789 | 18 ft | 2 kts | 231° |
| 2026-05-04 15:42 | 41.29713 | 2.08742 | 18 ft | 12 kts | 247° |
| 2026-05-04 15:42 | 41.29692 | 2.08665 | 18 ft | 2 kts | 248° |
| 2026-05-04 15:42 | 41.29679 | 2.08624 | 18 ft | 7 kts | 245° |
| 2026-05-04 15:42 | 41.29649 | 2.08552 | 17 ft | 11 kts | 230° |
| 2026-05-04 15:43 | 41.29577 | 2.08550 | 17 ft | 13 kts | 155° |
| 2026-05-04 15:43 | 41.29485 | 2.08601 | 17 ft | 16 kts | 158° |
| 2026-05-04 15:43 | 41.29428 | 2.08634 | 18 ft | 0 kts | 155° |
| 2026-05-04 15:44 | 41.29411 | 2.08645 | 16 ft | 6 kts | 155° |
| 2026-05-04 15:44 | 41.29358 | 2.08677 | 16 ft | 10 kts | 155° |
| 2026-05-04 15:44 | 41.29309 | 2.08706 | 17 ft | 13 kts | 156° |
| 2026-05-04 15:44 | 41.29187 | 2.08778 | 16 ft | 16 kts | 156° |
| 2026-05-04 15:45 | 41.29079 | 2.08844 | 17 ft | 18 kts | 155° |
| 2026-05-04 15:45 | 41.28989 | 2.08902 | 16 ft | 5 kts | 150° |
| 2026-05-04 15:45 | 41.28982 | 2.08907 | 18 ft | 4 kts | 150° |
| 2026-05-04 15:45 | 41.28954 | 2.08951 | 17 ft | 8 kts | 106° |
| 2026-05-04 15:46 | 41.28970 | 2.09039 | 17 ft | 12 kts | 67° |
| 2026-05-04 15:46 | 41.29009 | 2.09155 | 17 ft | 16 kts | 66° |
| 2026-05-04 15:46 | 41.29033 | 2.09225 | 19 ft | 0 kts | 64° |
| 2026-05-04 15:46 | 41.29037 | 2.09238 | 18 ft | 3 kts | 65° |
| 2026-05-04 15:47 | 41.29054 | 2.09285 | 18 ft | 8 kts | 65° |
| 2026-05-04 15:47 | 41.29082 | 2.09368 | 18 ft | 12 kts | 66° |
| 2026-05-04 15:47 | 41.29121 | 2.09483 | 19 ft | 15 kts | 66° |
| 2026-05-04 15:47 | 41.29168 | 2.09620 | 18 ft | 15 kts | 63° |
| 2026-05-04 15:48 | 41.29216 | 2.09757 | 17 ft | 18 kts | 66° |
| 2026-05-04 15:48 | 41.29263 | 2.09895 | 17 ft | 7 kts | 64° |
| 2026-05-04 15:48 | 41.29274 | 2.09946 | 17 ft | 5 kts | 92° |
| 2026-05-04 15:49 | 41.29252 | 2.09989 | 17 ft | 6 kts | 152° |
| 2026-05-04 15:49 | 41.29212 | 2.09983 | 16 ft | 7 kts | 204° |
| 2026-05-04 15:49 | 41.29167 | 2.09939 | 17 ft | 9 kts | 217° |
| 2026-05-04 15:49 | 41.29115 | 2.09883 | 17 ft | 10 kts | 220° |
| 2026-05-04 15:50 | 41.29059 | 2.09819 | 18 ft | 11 kts | 221° |
| 2026-05-04 15:50 | 41.29042 | 2.09790 | 17 ft | 0 kts | 237° |
| 2026-05-04 15:50 | 41.28979 | 2.09623 | 18 ft | 55 kts | 243° |
| 2026-05-04 15:50 | 41.28727 | 2.08882 | 20 ft | 118 kts | 246° |
| 2026-05-04 15:51 | 41.28330 | 2.07700 | 130 ft | 156 kts | 246° |
| 2026-05-04 15:51 | 41.27826 | 2.06319 | 370 ft | 184 kts | 239° |
| 2026-05-04 15:51 | 41.26946 | 2.04783 | 273 ft | 231 kts | 225° |
| 2026-05-04 15:51 | 41.25584 | 2.03547 | 829 ft | 248 kts | 201° |
| 2026-05-04 15:52 | 41.23815 | 2.03270 | 1172 ft | 272 kts | 171° |
| 2026-05-04 15:52 | 41.21967 | 2.04210 | 1407 ft | 301 kts | 151° |
| 2026-05-04 15:52 | 41.20023 | 2.05474 | 1852 ft | 318 kts | 163° |
| 2026-05-04 15:52 | 41.17849 | 2.05718 | 2794 ft | 310 kts | 189° |
| 2026-05-04 15:53 | 41.15868 | 2.04844 | 4008 ft | 294 kts | 207° |
| 2026-05-04 15:53 | 41.14155 | 2.03510 | 5351 ft | 277 kts | 211° |
| 2026-05-04 15:53 | 41.12538 | 2.02284 | 6759 ft | 260 kts | 210° |
| 2026-05-04 15:53 | 41.10999 | 2.01185 | 8192 ft | 242 kts | 209° |
| 2026-05-04 15:54 | 41.09546 | 2.00182 | 9563 ft | 234 kts | 208° |
| 2026-05-04 15:54 | 41.08089 | 1.99196 | 10529 ft | 237 kts | 207° |
| 2026-05-04 15:54 | 41.06530 | 1.98427 | 11423 ft | 243 kts | 197° |
| 2026-05-04 15:54 | 41.04850 | 1.97991 | 12266 ft | 252 kts | 193° |
| 2026-05-04 15:55 | 41.03048 | 1.97569 | 12704 ft | 276 kts | 193° |
| 2026-05-04 15:55 | 41.01087 | 1.97095 | 13072 ft | 299 kts | 193° |
| 2026-05-04 15:55 | 40.98964 | 1.96578 | 13442 ft | 323 kts | 193° |
| 2026-05-04 15:55 | 40.96701 | 1.96062 | 14148 ft | 336 kts | 188° |
| 2026-05-04 15:56 | 40.95130 | 1.96113 | 14752 ft | 344 kts | 174° |
| 2026-05-04 15:56 | 40.92131 | 1.97747 | 15941 ft | 363 kts | 148° |
| 2026-05-04 15:56 | 40.90296 | 2.00116 | 16655 ft | 377 kts | 134° |
| 2026-05-04 15:56 | 40.88687 | 2.02899 | 17383 ft | 385 kts | 130° |
| 2026-05-04 15:57 | 40.87116 | 2.05778 | 18115 ft | 390 kts | 130° |
| 2026-05-04 15:57 | 40.85505 | 2.08684 | 18684 ft | 395 kts | 131° |
| 2026-05-04 15:57 | 40.83856 | 2.11580 | 18878 ft | 396 kts | 132° |
| 2026-05-04 15:57 | 40.82181 | 2.14461 | 18906 ft | 396 kts | 133° |
| 2026-05-04 15:58 | 40.80499 | 2.17320 | 18902 ft | 395 kts | 133° |
| 2026-05-04 15:58 | 40.78805 | 2.20167 | 18904 ft | 395 kts | 135° |
| 2026-05-04 15:58 | 40.76933 | 2.22771 | 18905 ft | 390 kts | 143° |
| 2026-05-04 15:58 | 40.74829 | 2.24982 | 18904 ft | 385 kts | 151° |
| 2026-05-04 15:59 | 40.72573 | 2.26836 | 18907 ft | 383 kts | 154° |
| 2026-05-04 15:59 | 40.70299 | 2.28666 | 18899 ft | 384 kts | 154° |
| 2026-05-04 15:59 | 40.68034 | 2.30502 | 18901 ft | 384 kts | 154° |
| 2026-05-04 15:59 | 40.65762 | 2.32346 | 18907 ft | 384 kts | 154° |
| 2026-05-04 16:00 | 40.63496 | 2.34184 | 18904 ft | 384 kts | 154° |
| 2026-05-04 16:00 | 40.61221 | 2.36025 | 18906 ft | 384 kts | 154° |
| 2026-05-04 16:00 | 40.58949 | 2.37857 | 18905 ft | 384 kts | 154° |
| 2026-05-04 16:00 | 40.56670 | 2.39692 | 18904 ft | 384 kts | 154° |
| 2026-05-04 16:01 | 40.54396 | 2.41523 | 18905 ft | 384 kts | 154° |
| 2026-05-04 16:01 | 40.52120 | 2.43355 | 18909 ft | 385 kts | 154° |
| 2026-05-04 16:01 | 40.49840 | 2.45187 | 18905 ft | 385 kts | 154° |
| 2026-05-04 16:01 | 40.47564 | 2.47016 | 18907 ft | 385 kts | 154° |
| 2026-05-04 16:02 | 40.45254 | 2.48761 | 18905 ft | 380 kts | 162° |
| 2026-05-04 16:02 | 40.42758 | 2.49657 | 18912 ft | 369 kts | 179° |
| 2026-05-04 16:02 | 40.37966 | 2.48255 | 18907 ft | 353 kts | 215° |
| 2026-05-04 16:03 | 40.36163 | 2.46141 | 18904 ft | 349 kts | 233° |
| 2026-05-04 16:03 | 40.35020 | 2.43362 | 18908 ft | 348 kts | 251° |
| 2026-05-04 16:03 | 40.34667 | 2.40230 | 18911 ft | 352 kts | 270° |
| 2026-05-04 16:03 | 40.35151 | 2.37068 | 18907 ft | 359 kts | 287° |
| 2026-05-04 16:04 | 40.35889 | 2.33971 | 18910 ft | 355 kts | 275° |
| 2026-05-04 16:04 | 40.35077 | 2.27832 | 18907 ft | 346 kts | 240° |
| 2026-05-04 16:04 | 40.33557 | 2.25401 | 18908 ft | 349 kts | 222° |
| 2026-05-04 16:05 | 40.31471 | 2.23753 | 18909 ft | 355 kts | 204° |
| 2026-05-04 16:05 | 40.29043 | 2.23091 | 18903 ft | 364 kts | 186° |
| 2026-05-04 16:05 | 40.24127 | 2.24995 | 18910 ft | 388 kts | 150° |
| 2026-05-04 16:06 | 40.22064 | 2.27309 | 18901 ft | 393 kts | 143° |
| 2026-05-04 16:06 | 40.15944 | 2.31933 | 18909 ft | 377 kts | 167° |
| 2026-05-04 16:07 | 40.12587 | 2.33103 | 18903 ft | 374 kts | 173° |
| 2026-05-04 16:07 | 40.04959 | 2.35065 | 18914 ft | 373 kts | 174° |
| 2026-05-04 16:08 | 40.02411 | 2.35703 | 18913 ft | 373 kts | 174° |
| 2026-05-04 16:08 | 39.94786 | 2.36924 | 18913 ft | 361 kts | 195° |
| 2026-05-04 16:09 | 39.94024 | 2.36700 | 18914 ft | 359 kts | 200° |
| 2026-05-04 16:09 | 39.91642 | 2.35334 | 18918 ft | 338 kts | 212° |
| 2026-05-04 16:10 | 39.87346 | 2.32341 | 18915 ft | 354 kts | 211° |
| 2026-05-04 16:11 | 39.80839 | 2.27847 | 18921 ft | 354 kts | 211° |
| 2026-05-04 16:11 | 39.78671 | 2.26353 | 18918 ft | 354 kts | 211° |
| 2026-05-04 16:12 | 39.72249 | 2.21939 | 18785 ft | 336 kts | 211° |
| 2026-05-04 16:12 | 39.66434 | 2.17950 | 18461 ft | 296 kts | 212° |
| 2026-05-04 16:13 | 39.62955 | 2.15564 | 18268 ft | 271 kts | 212° |
| 2026-05-04 16:13 | 39.59778 | 2.13385 | 18018 ft | 249 kts | 213° |
| 2026-05-04 16:14 | 39.56750 | 2.11301 | 17258 ft | 246 kts | 213° |
| 2026-05-04 16:14 | 39.53750 | 2.09241 | 16507 ft | 244 kts | 212° |
| 2026-05-04 16:15 | 39.49284 | 2.06185 | 15415 ft | 241 kts | 212° |
| 2026-05-04 16:16 | 39.46351 | 2.04183 | 14939 ft | 238 kts | 212° |
| 2026-05-04 16:16 | 39.41942 | 2.01176 | 14865 ft | 238 kts | 212° |
| 2026-05-04 16:17 | 39.39028 | 1.99193 | 14263 ft | 237 kts | 212° |
| 2026-05-04 16:18 | 39.34674 | 1.96231 | 13221 ft | 234 kts | 211° |
| 2026-05-04 16:18 | 39.33234 | 1.95252 | 12876 ft | 233 kts | 211° |
| 2026-05-04 16:19 | 39.28980 | 1.92364 | 11840 ft | 229 kts | 211° |
| 2026-05-04 16:19 | 39.26179 | 1.90465 | 11164 ft | 226 kts | 211° |
| 2026-05-04 16:20 | 39.22041 | 1.87662 | 10094 ft | 222 kts | 211° |
| 2026-05-04 16:20 | 39.19324 | 1.85823 | 9343 ft | 221 kts | 211° |
| 2026-05-04 16:21 | 39.15728 | 1.83391 | 8344 ft | 218 kts | 211° |
| 2026-05-04 16:22 | 39.12614 | 1.81289 | 7523 ft | 216 kts | 211° |
| 2026-05-04 16:22 | 39.08638 | 1.78607 | 6455 ft | 215 kts | 210° |
| 2026-05-04 16:23 | 39.04701 | 1.75956 | 5406 ft | 213 kts | 210° |
| 2026-05-04 16:24 | 39.01038 | 1.70524 | 4240 ft | 198 kts | 242° |
| 2026-05-04 16:25 | 38.99838 | 1.67645 | 4098 ft | 167 kts | 241° |
| 2026-05-04 16:26 | 38.98041 | 1.63318 | 3364 ft | 120 kts | 241° |
| 2026-05-04 16:26 | 38.96882 | 1.60522 | 2997 ft | 121 kts | 241° |
| 2026-05-04 16:27 | 38.96087 | 1.58599 | 2993 ft | 121 kts | 240° |
| 2026-05-04 16:28 | 38.94888 | 1.55707 | 2921 ft | 122 kts | 240° |
| 2026-05-04 16:28 | 38.93700 | 1.52837 | 2460 ft | 121 kts | 240° |
| 2026-05-04 16:29 | 38.92111 | 1.48995 | 1809 ft | 120 kts | 239° |
| 2026-05-04 16:30 | 38.90920 | 1.46113 | 1317 ft | 121 kts | 239° |
| 2026-05-04 16:31 | 38.90122 | 1.44179 | 996 ft | 125 kts | 239° |
| 2026-05-04 16:31 | 38.88921 | 1.41312 | 539 ft | 124 kts | 240° |
| 2026-05-04 16:32 | 38.87784 | 1.38481 | 54 ft | 128 kts | 233° |
| 2026-05-04 16:33 | 38.86936 | 1.36492 | 30 ft | 66 kts | 242° |
| 2026-05-04 16:33 | 38.86730 | 1.35877 | 26 ft | 22 kts | 278° |
| 2026-05-04 16:34 | 38.86883 | 1.35893 | 26 ft | 15 kts | 62° |
| 2026-05-04 16:34 | 38.86937 | 1.36027 | 29 ft | 19 kts | 62° |
| 2026-05-04 16:35 | 38.87138 | 1.36509 | 28 ft | 23 kts | 62° |
| 2026-05-04 16:35 | 38.87365 | 1.36812 | 27 ft | 13 kts | 339° |
| 2026-05-04 16:36 | 38.87406 | 1.36728 | 26 ft | 8 kts | 245° |
| 2026-05-04 16:36 | 38.87458 | 1.36684 | 26 ft | 1 kts | 10° |
| 2026-05-04 16:37 | 38.87468 | 1.36683 | 26 ft | 0 kts | 349° |
| 2026-05-04 16:37 | 38.87469 | 1.36684 | 26 ft | 0 kts | 355° |
| 2026-05-04 16:37 | 38.87472 | 1.36685 | 26 ft | 0 kts | 7° |